Time;durP1;ratioP1;P1;durP2;ratioP2;P2;SDS_P1;SDS_P2;PMS_P1;PMS_P2;Temp;Humidity;BMP_temperature;BMP_pressure;BME280_temperature;BME280_humidity;BME280_pressure;Samples;Min_cycle;Max_cycle;Signal;HPM_P1;HPM_P2
2023/11/19 00:00:28;;;;;;;8.00;7.20;;;;;;;1.64;100.00;99747.35;109657;1252;72552;-67
2023/11/19 00:02:54;;;;;;;9.00;7.60;;;;;;;1.64;100.00;99746.36;109642;1251;59465;-67
2023/11/19 00:05:21;;;;;;;8.70;7.80;;;;;;;1.63;100.00;99742.42;109685;1250;60176;-67
2023/11/19 00:07:48;;;;;;;9.80;8.60;;;;;;;1.61;100.00;99739.38;109605;1250;74685;-65
2023/11/19 00:10:18;;;;;;;10.70;9.30;;;;;;;1.61;100.00;99738.91;109659;1251;66939;-66
2023/11/19 00:12:46;;;;;;;12.00;10.00;;;;;;;1.62;100.00;99737.37;109618;1250;71229;-67
2023/11/19 00:15:16;;;;;;;9.80;8.30;;;;;;;1.67;100.00;99738.79;109673;1250;59949;-67
2023/11/19 00:17:47;;;;;;;10.10;8.10;;;;;;;1.73;100.00;99742.73;109621;1250;59247;-67
2023/11/19 00:20:18;;;;;;;7.70;7.00;;;;;;;1.77;100.00;99741.38;109667;1250;73972;-67
2023/11/19 00:22:48;;;;;;;8.60;7.30;;;;;;;1.80;100.00;99735.37;109656;1250;67700;-67
2023/11/19 00:25:16;;;;;;;7.50;6.20;;;;;;;1.81;100.00;99731.51;109631;1251;71397;-66
2023/11/19 00:27:44;;;;;;;6.10;5.50;;;;;;;1.79;100.00;99729.90;109621;1251;59483;-66
2023/11/19 00:30:11;;;;;;;7.70;6.50;;;;;;;1.78;100.00;99729.80;109659;1250;59698;-66
2023/11/19 00:32:39;;;;;;;7.50;6.60;;;;;;;1.75;100.00;99726.70;109642;1250;74614;-66
2023/11/19 00:35:07;;;;;;;6.40;5.80;;;;;;;1.72;100.00;99724.42;109640;1250;67632;-67
2023/11/19 00:37:33;;;;;;;6.70;5.90;;;;;;;1.72;100.00;99721.48;109624;1250;72500;-66
2023/11/19 00:40:00;;;;;;;6.80;6.10;;;;;;;1.74;100.00;99712.96;109643;1250;59612;-67
2023/11/19 00:42:27;;;;;;;6.50;5.80;;;;;;;1.77;100.00;99714.85;109650;1250;58998;-67
2023/11/19 00:44:53;;;;;;;5.10;4.70;;;;;;;1.76;100.00;99716.27;109644;1250;73491;-67
2023/11/19 00:47:20;;;;;;;5.70;5.20;;;;;;;1.71;100.00;99714.70;109688;1250;65622;-66
2023/11/19 00:49:50;;;;;;;6.30;5.70;;;;;;;1.65;100.00;99712.19;109645;1251;72522;-66
2023/11/19 00:52:17;;;;;;;7.20;6.20;;;;;;;1.59;100.00;99709.30;109589;1250;60914;-66
2023/11/19 00:54:43;;;;;;;6.80;6.00;;;;;;;1.53;100.00;99703.30;109632;1250;59415;-67
2023/11/19 00:57:10;;;;;;;6.20;5.60;;;;;;;1.47;100.00;99701.42;109604;1250;58990;-68
2023/11/19 00:59:37;;;;;;;6.50;5.90;;;;;;;1.45;100.00;99702.42;109649;1250;59430;-67
2023/11/19 01:02:05;;;;;;;5.40;4.90;;;;;;;1.44;100.00;99702.87;109660;1250;72600;-67
2023/11/19 01:04:35;;;;;;;5.50;5.00;;;;;;;1.42;100.00;99705.44;109601;1251;58992;-66
2023/11/19 01:07:06;;;;;;;5.50;5.00;;;;;;;1.40;100.00;99702.14;109624;1250;59008;-66
2023/11/19 01:09:34;;;;;;;6.90;5.60;;;;;;;1.37;100.00;99699.20;109656;1250;74989;-66
2023/11/19 01:12:01;;;;;;;5.80;5.10;;;;;;;1.33;100.00;99689.86;109661;1250;67880;-66
2023/11/19 01:14:28;;;;;;;9.50;5.70;;;;;;;1.31;100.00;99688.73;109507;1251;71038;-66
2023/11/19 01:16:55;;;;;;;6.70;5.60;;;;;;;1.30;100.00;99687.23;109472;1251;61162;-66
2023/11/19 01:19:22;;;;;;;6.30;5.10;;;;;;;1.31;100.00;99684.05;109597;1251;59166;-66
2023/11/19 01:21:50;;;;;;;6.10;4.90;;;;;;;1.31;100.00;99676.51;109527;1251;74673;-66
2023/11/19 01:24:17;;;;;;;5.90;5.40;;;;;;;1.33;100.00;99676.92;109664;1250;67557;-66
2023/11/19 01:26:47;;;;;;;5.60;5.00;;;;;;;1.32;100.00;99675.21;109623;1250;72502;-66
2023/11/19 01:29:14;;;;;;;5.20;4.70;;;;;;;1.31;100.00;99685.09;109591;1251;59842;-66
2023/11/19 01:31:43;;;;;;;6.10;5.20;;;;;;;1.29;100.00;99688.21;109667;1250;59363;-66
2023/11/19 01:34:11;;;;;;;6.70;5.30;;;;;;;1.27;100.00;99692.73;109638;1250;74334;-66
2023/11/19 01:36:39;;;;;;;6.30;5.40;;;;;;;1.23;100.00;99692.11;109481;1256;66455;-66
2023/11/19 01:39:06;;;;;;;5.70;4.80;;;;;;;1.21;100.00;99687.52;109602;1250;72000;-66
2023/11/19 01:41:36;;;;;;;6.20;5.70;;;;;;;1.20;100.00;99681.63;109608;1250;59279;-66
2023/11/19 01:44:02;;;;;;;5.60;5.00;;;;;;;1.19;100.00;99680.66;109626;1250;59480;-66
2023/11/19 01:46:32;;;;;;;5.60;4.90;;;;;;;1.19;100.00;99683.27;109664;1250;74337;-66
2023/11/19 01:48:59;;;;;;;5.60;5.00;;;;;;;1.16;100.00;99684.21;109428;1251;66493;-66
2023/11/19 01:51:25;;;;;;;5.60;5.00;;;;;;;1.17;100.00;99679.02;109591;1251;72672;-66
2023/11/19 01:53:52;;;;;;;5.20;4.70;;;;;;;1.18;100.00;99677.20;109424;1251;58973;-66
2023/11/19 01:56:18;;;;;;;5.40;4.90;;;;;;;1.19;100.00;99679.98;109500;1251;60406;-66
2023/11/19 01:58:45;;;;;;;5.70;5.10;;;;;;;1.17;100.00;99679.71;109449;1251;73412;-66
2023/11/19 02:01:12;;;;;;;5.90;5.00;;;;;;;1.17;100.00;99682.88;109501;1251;65711;-66
2023/11/19 02:03:39;;;;;;;5.30;4.80;;;;;;;1.17;100.00;99681.36;109514;1251;71568;-66
2023/11/19 02:06:07;;;;;;;4.90;4.40;;;;;;;1.17;100.00;99683.06;109570;1251;58973;-67
2023/11/19 02:08:33;;;;;;;5.60;5.00;;;;;;;1.15;100.00;99680.41;109642;1251;59068;-66
2023/11/19 02:11:00;;;;;;;6.80;5.40;;;;;;;1.11;100.00;99685.27;109461;1254;59446;-66
2023/11/19 02:13:27;;;;;;;6.00;4.90;;;;;;;1.08;100.00;99688.42;109662;1251;59017;-66
2023/11/19 02:15:54;;;;;;;6.00;5.40;;;;;;;1.07;100.00;99686.39;109596;1251;71705;-66
2023/11/19 02:18:27;;;;;;;6.50;4.90;;;;;;;1.10;100.00;99685.27;109626;1250;59911;-66
2023/11/19 02:20:57;;;;;;;5.40;4.90;;;;;;;1.16;100.00;99678.07;109599;1251;58960;-66
2023/11/19 02:23:26;;;;;;;4.60;4.20;;;;;;;1.22;100.00;99681.18;109523;1251;72142;-66
2023/11/19 02:25:55;;;;;;;4.80;4.40;;;;;;;1.28;100.00;99687.04;109678;1251;67186;-66
2023/11/19 02:28:22;;;;;;;4.80;4.30;;;;;;;1.34;100.00;99685.88;109663;1250;71458;-66
2023/11/19 02:30:49;;;;;;;5.20;4.70;;;;;;;1.40;100.00;99682.55;109545;1251;58957;-66
2023/11/19 02:33:15;;;;;;;5.40;4.90;;;;;;;1.43;100.00;99677.63;109606;1250;59353;-67
2023/11/19 02:35:42;;;;;;;5.50;4.90;;;;;;;1.42;100.00;99675.36;109640;1250;58896;-67
2023/11/19 02:38:08;;;;;;;6.50;5.30;;;;;;;1.43;100.00;99665.02;109659;1251;59002;-67
2023/11/19 02:40:35;;;;;;;5.40;4.80;;;;;;;1.45;100.00;99659.10;109657;1251;71513;-67
2023/11/19 02:43:04;;;;;;;5.00;4.60;;;;;;;1.46;100.00;99656.96;109651;1251;58816;-67
2023/11/19 02:45:31;;;;;;;4.50;4.10;;;;;;;1.41;100.00;99666.52;109643;1250;58918;-67
2023/11/19 02:47:57;;;;;;;5.10;4.60;;;;;;;1.34;100.00;99665.16;109627;1250;74511;-67
2023/11/19 02:50:25;;;;;;;5.40;4.90;;;;;;;1.23;100.00;99662.76;109645;1251;67671;-66
2023/11/19 02:52:58;;;;;;;6.20;5.10;;;;;;;1.13;100.00;99655.77;109519;1251;72378;-67
2023/11/19 02:55:25;;;;;;;5.70;4.90;;;;;;;1.03;100.00;99649.98;109623;1250;59702;-66
2023/11/19 02:57:53;;;;;;;5.20;4.70;;;;;;;0.95;100.00;99652.47;109641;1251;59012;-66
2023/11/19 03:00:47;;;;;;;5.50;4.90;;;;;;;0.89;100.00;99657.09;109630;1251;74685;-66
2023/11/19 03:03:26;;;;;;;6.40;5.70;;;;;;;0.86;100.00;99655.92;109641;1250;67889;-67
2023/11/19 03:05:52;;;;;;;4.70;4.30;;;;;;;0.85;100.00;99651.95;109629;1251;72536;-67
2023/11/19 03:08:19;;;;;;;5.20;4.70;;;;;;;0.86;100.00;99645.99;109572;1251;59384;-67
2023/11/19 03:10:48;;;;;;;6.10;4.70;;;;;;;0.83;100.00;99640.06;109625;1251;58834;-67
2023/11/19 03:13:15;;;;;;;6.10;5.30;;;;;;;0.79;100.00;99638.58;109654;1250;73676;-67
2023/11/19 03:15:41;;;;;;;6.10;5.50;;;;;;;0.77;100.00;99635.39;109587;1251;59001;-67
2023/11/19 03:18:08;;;;;;;5.80;5.20;;;;;;;0.78;100.00;99639.05;109442;1251;72247;-67
2023/11/19 03:20:35;;;;;;;5.40;4.90;;;;;;;0.78;100.00;99640.62;109565;1251;60871;-67
2023/11/19 03:23:02;;;;;;;5.60;4.70;;;;;;;0.78;100.00;99637.45;109653;1254;59574;-67
2023/11/19 03:25:36;;;;;;;5.30;4.80;;;;;;;0.77;100.00;99640.28;109652;1250;72876;-67
2023/11/19 03:28:03;;;;;;;6.90;6.20;;;;;;;0.76;100.00;99637.09;109631;1251;67820;-68
2023/11/19 03:30:30;;;;;;;7.70;6.30;;;;;;;0.74;100.00;99633.55;109599;1251;73116;-67
2023/11/19 03:33:01;;;;;;;7.40;6.50;;;;;;;0.72;100.00;99625.66;109615;1252;61245;-67
2023/11/19 03:35:28;;;;;;;7.40;6.70;;;;;;;0.68;100.00;99617.90;109601;1251;59962;-67
2023/11/19 03:37:54;;;;;;;6.80;6.10;;;;;;;0.63;100.00;99615.60;109662;1251;73199;-67
2023/11/19 03:40:21;;;;;;;7.20;6.50;;;;;;;0.59;100.00;99614.44;109658;1251;58959;-67
2023/11/19 03:42:47;;;;;;;6.80;6.00;;;;;;;0.56;100.00;99602.46;109678;1251;72700;-67
2023/11/19 03:45:15;;;;;;;6.50;5.90;;;;;;;0.54;100.00;99596.02;109577;1251;58950;-68
2023/11/19 03:47:42;;;;;;;5.20;4.70;;;;;;;0.52;100.00;99599.23;109634;1250;59052;-67
2023/11/19 03:50:09;;;;;;;5.30;4.80;;;;;;;0.51;100.00;99591.31;109664;1252;73508;-67
2023/11/19 03:52:35;;;;;;;6.40;5.10;;;;;;;0.50;100.00;99588.57;109656;1250;66643;-67
2023/11/19 03:55:12;;;;;;;6.30;5.20;;;;;;;0.47;100.00;99577.95;109599;1250;72515;-67
2023/11/19 03:57:39;;;;;;;5.10;4.60;;;;;;;0.44;100.00;99568.24;109582;1251;59950;-68
2023/11/19 04:00:09;;;;;;;5.80;5.30;;;;;;;0.39;100.00;99558.06;109615;1250;60271;-66
2023/11/19 04:02:40;;;;;;;5.50;4.90;;;;;;;0.33;100.00;99554.66;109540;1251;74484;-67
2023/11/19 04:05:07;;;;;;;8.20;4.60;;;;;;;0.26;100.00;99547.69;109657;1251;68253;-66
2023/11/19 04:07:34;;;;;;;4.50;4.10;;;;;;;0.18;100.00;99542.27;109629;1251;71712;-67
2023/11/19 04:10:00;;;;;;;5.30;4.80;;;;;;;0.10;100.00;99534.83;109652;1251;58964;-66
2023/11/19 04:12:27;;;;;;;4.70;4.20;;;;;;;0.00;100.00;99525.88;109602;1251;58873;-66
2023/11/19 04:14:53;;;;;;;4.50;4.10;;;;;;;-0.10;100.00;99524.80;109623;1250;59314;-66
2023/11/19 04:17:23;;;;;;;5.30;4.00;;;;;;;-0.18;100.00;99514.94;109591;1251;66632;-66
2023/11/19 04:19:49;;;;;;;5.00;4.40;;;;;;;-0.26;100.00;99509.89;109618;1251;59012;-66
2023/11/19 04:22:16;;;;;;;5.30;4.70;;;;;;;-0.32;100.00;99508.04;109598;1251;58958;-66
2023/11/19 04:24:44;;;;;;;5.20;4.70;;;;;;;-0.38;100.00;99503.86;109527;1251;59219;-66
2023/11/19 04:27:10;;;;;;;5.00;4.00;;;;;;;-0.42;100.00;99504.14;109654;1250;74429;-67
2023/11/19 04:29:38;;;;;;;5.30;4.30;;;;;;;-0.46;100.00;99503.34;109594;1251;66568;-67
2023/11/19 04:32:05;;;;;;;4.60;4.10;;;;;;;-0.49;100.00;99503.58;109613;1251;71163;-67
2023/11/19 04:34:31;;;;;;;5.90;5.40;;;;;;;-0.53;100.00;99510.30;109607;1251;59988;-67
2023/11/19 04:37:01;;;;;;;5.00;4.50;;;;;;;-0.56;100.00;99505.80;109639;1250;58885;-67
2023/11/19 04:39:39;;;;;;;4.90;4.40;;;;;;;-0.60;100.00;99509.70;109626;1251;74537;-68
2023/11/19 04:42:06;;;;;;;5.10;4.60;;;;;;;-0.61;100.00;99510.09;109637;1250;67872;-66
2023/11/19 04:44:32;;;;;;;4.70;4.30;;;;;;;-0.63;100.00;99515.45;109650;1251;71566;-66
2023/11/19 04:46:59;;;;;;;4.70;4.30;;;;;;;-0.64;100.00;99518.63;109605;1251;59483;-68
2023/11/19 04:49:26;;;;;;;11.60;4.40;;;;;;;-0.64;100.00;99521.94;109642;1250;60704;-68
2023/11/19 04:51:53;;;;;;;4.80;4.10;;;;;;;-0.63;100.00;99527.14;109640;1251;74622;-68
2023/11/19 04:54:20;;;;;;;4.80;4.10;;;;;;;-0.65;100.00;99528.95;109658;1251;68675;-68
2023/11/19 04:56:47;;;;;;;5.30;4.80;;;;;;;-0.67;100.00;99536.23;109650;1251;58940;-68
2023/11/19 04:59:13;;;;;;;4.40;4.00;;;;;;;-0.68;100.00;99545.06;109589;1251;59620;-68
2023/11/19 05:01:40;;;;;;;4.20;3.80;;;;;;;-0.69;100.00;99552.09;109569;1250;59211;-68
2023/11/19 05:04:07;;;;;;;4.70;4.30;;;;;;;-0.70;100.00;99555.13;109636;1251;72438;-67
2023/11/19 05:06:35;;;;;;;5.20;4.40;;;;;;;-0.71;100.00;99557.77;109650;1251;66541;-67
2023/11/19 05:09:03;;;;;;;3.90;3.60;;;;;;;-0.70;100.00;99564.88;109662;1251;72623;-67
2023/11/19 05:11:34;;;;;;;3.90;3.60;;;;;;;-0.70;100.00;99576.20;109601;1250;59007;-67
2023/11/19 05:14:03;;;;;;;4.10;3.70;;;;;;;-0.70;100.00;99570.27;109626;1250;59266;-67
2023/11/19 05:16:30;;;;;;;4.20;3.80;;;;;;;-0.67;100.00;99567.80;109643;1251;74372;-67
2023/11/19 05:18:57;;;;;;;5.30;4.80;;;;;;;-0.63;100.00;99568.42;109621;1251;67735;-67
2023/11/19 05:21:24;;;;;;;4.20;3.80;;;;;;;-0.62;100.00;99568.83;109613;1251;71551;-67
2023/11/19 05:23:50;;;;;;;5.40;4.90;;;;;;;-0.62;100.00;99567.45;109566;1251;59756;-68
2023/11/19 05:26:21;;;;;;;5.00;4.60;;;;;;;-0.60;100.00;99566.52;109605;1250;60047;-68
2023/11/19 05:28:47;;;;;;;4.50;4.10;;;;;;;-0.59;100.00;99568.69;109624;1250;74701;-67
2023/11/19 05:31:15;;;;;;;4.60;4.20;;;;;;;-0.56;100.00;99570.03;109649;1251;66379;-67
2023/11/19 05:33:42;;;;;;;4.90;4.40;;;;;;;-0.50;100.00;99567.93;109600;1252;72472;-67
2023/11/19 05:36:08;;;;;;;5.00;4.50;;;;;;;-0.45;100.00;99559.92;109539;1250;59044;-67
2023/11/19 05:38:36;;;;;;;4.10;3.80;;;;;;;-0.41;100.00;99552.84;109641;1251;60201;-66
2023/11/19 05:41:03;;;;;;;7.10;4.80;;;;;;;-0.39;100.00;99550.10;109533;1251;73575;-65
2023/11/19 05:43:29;;;;;;;5.60;4.80;;;;;;;-0.37;100.00;99554.89;109494;1251;68551;-66
2023/11/19 05:45:56;;;;;;;5.30;4.80;;;;;;;-0.36;100.00;99562.45;109654;1251;58938;-66
2023/11/19 05:48:22;;;;;;;5.00;4.60;;;;;;;-0.32;100.00;99558.88;109655;1251;58921;-67
2023/11/19 05:50:49;;;;;;;4.50;4.10;;;;;;;-0.31;100.00;99545.73;109639;1250;60100;-67
2023/11/19 05:53:16;;;;;;;4.70;4.20;;;;;;;-0.29;100.00;99538.45;109688;1251;74632;-67
2023/11/19 05:55:54;;;;;;;4.70;4.30;;;;;;;-0.23;100.00;99533.70;109674;1251;66990;-67
2023/11/19 05:58:26;;;;;;;4.80;4.40;;;;;;;-0.10;100.00;99531.10;109651;1251;72493;-67
2023/11/19 06:00:52;;;;;;;9.10;5.00;;;;;;;0.06;100.00;99519.05;109600;1251;58958;-68
2023/11/19 06:03:19;;;;;;;6.00;5.00;;;;;;;0.19;100.00;99508.94;109608;1251;58906;-68
2023/11/19 06:05:46;;;;;;;5.30;4.80;;;;;;;0.30;100.00;99507.08;109702;1251;74455;-68
2023/11/19 06:08:14;;;;;;;5.30;4.70;;;;;;;0.45;100.00;99506.21;109634;1251;67899;-68
2023/11/19 06:10:41;;;;;;;5.50;4.90;;;;;;;0.59;100.00;99500.67;109683;1250;73527;-69
2023/11/19 06:13:10;;;;;;;5.60;5.10;;;;;;;0.78;100.00;99500.56;109607;1251;59082;-67
2023/11/19 06:15:36;;;;;;;5.60;5.10;;;;;;;0.98;100.00;99499.66;109641;1251;60239;-67
2023/11/19 06:18:03;;;;;;;6.20;5.60;;;;;;;1.21;100.00;99499.04;109649;1251;73046;-66
2023/11/19 06:20:31;;;;;;;6.10;5.60;;;;;;;1.43;100.00;99496.02;109606;1251;66387;-66
2023/11/19 06:23:09;;;;;;;7.20;5.90;;;;;;;1.67;100.00;99493.83;109571;1251;71813;-66
2023/11/19 06:25:36;;;;;;;6.90;6.30;;;;;;;1.86;100.00;99493.79;109584;1251;58944;-64
2023/11/19 06:28:03;;;;;;;9.90;6.30;;;;;;;2.08;100.00;99494.53;109590;1250;60289;-66
2023/11/19 06:30:32;;;;;;;6.10;5.50;;;;;;;2.34;100.00;99495.14;109516;1251;75053;-67
2023/11/19 06:32:59;;;;;;;5.90;5.30;;;;;;;2.55;100.00;99491.98;109573;1251;66645;-68
2023/11/19 06:35:26;;;;;;;5.30;4.80;;;;;;;2.66;100.00;99488.85;109650;1251;72351;-65
2023/11/19 06:37:53;;;;;;;6.60;5.90;;;;;;;2.75;100.00;99481.08;109621;1251;59289;-64
2023/11/19 06:40:19;;;;;;;6.50;5.80;;;;;;;2.87;100.00;99479.25;109592;1251;60348;-66
2023/11/19 06:42:46;;;;;;;6.10;5.50;;;;;;;3.02;100.00;99476.59;109733;1251;72499;-65
2023/11/19 06:45:12;;;;;;;6.70;6.10;;;;;;;3.27;100.00;99475.98;109607;1251;67712;-65
2023/11/19 06:47:39;;;;;;;6.70;6.10;;;;;;;3.54;100.00;99477.40;109596;1250;72397;-66
2023/11/19 06:50:07;;;;;;;9.40;6.90;;;;;;;3.86;100.00;99474.23;109622;1251;59992;-65
2023/11/19 06:52:34;;;;;;;8.90;7.70;;;;;;;4.12;100.00;99472.89;109541;1251;59574;-68
2023/11/19 06:55:00;;;;;;;10.90;7.10;;;;;;;4.28;100.00;99466.73;109645;1254;74471;-65
2023/11/19 06:57:32;;;;;;;7.10;6.30;;;;;;;4.47;100.00;99468.96;109645;1251;68119;-72
2023/11/19 06:59:58;;;;;;;6.90;6.20;;;;;;;4.67;100.00;99475.67;109623;1251;72310;-68
2023/11/19 07:02:25;;;;;;;6.50;5.90;;;;;;;4.89;100.00;99478.14;109657;1251;59011;-68
2023/11/19 07:04:54;;;;;;;6.50;5.90;;;;;;;5.05;100.00;99480.57;109602;1251;59008;-67
2023/11/19 07:07:21;;;;;;;6.00;5.50;;;;;;;5.21;100.00;99480.38;109661;1250;74839;-67
2023/11/19 07:09:47;;;;;;;6.90;6.20;;;;;;;5.43;100.00;99482.37;109673;1250;65458;-67
2023/11/19 07:12:15;;;;;;;7.50;6.30;;;;;;;5.68;100.00;99486.27;109562;1251;72555;-65
2023/11/19 07:14:43;;;;;;;5.50;5.00;;;;;;;6.04;100.00;99485.58;109534;1251;59498;-65
2023/11/19 07:17:10;;;;;;;6.30;5.40;;;;;;;6.41;100.00;99487.08;109489;1250;58943;-66
2023/11/19 07:19:38;;;;;;;5.00;4.60;;;;;;;6.66;100.00;99485.02;109583;1251;73350;-65
2023/11/19 07:22:06;;;;;;;5.70;5.20;;;;;;;6.85;100.00;99483.48;109625;1251;66900;-65
2023/11/19 07:24:32;;;;;;;5.00;4.50;;;;;;;7.04;100.00;99485.23;109587;1251;71880;-62
2023/11/19 07:26:59;;;;;;;4.60;4.20;;;;;;;7.16;100.00;99479.05;109613;1250;60109;-65
2023/11/19 07:29:26;;;;;;;4.70;4.10;;;;;;;7.32;100.00;99476.95;109673;1250;59055;-65
2023/11/19 07:31:55;;;;;;;4.80;4.30;;;;;;;7.61;100.00;99470.61;109570;1251;72628;-64
2023/11/19 07:34:22;;;;;;;4.30;3.90;;;;;;;7.80;100.00;99466.05;109647;1251;66646;-62
2023/11/19 07:36:48;;;;;;;4.30;4.00;;;;;;;8.00;99.77;99458.32;109597;1251;72605;-62
2023/11/19 07:39:15;;;;;;;4.20;3.80;;;;;;;8.16;96.44;99454.63;109608;1250;59800;-67
2023/11/19 07:41:41;;;;;;;5.20;4.70;;;;;;;8.33;94.88;99444.42;109525;1253;59987;-69
2023/11/19 07:44:10;;;;;;;4.50;3.80;;;;;;;8.52;89.95;99443.39;109471;1250;73193;-67
2023/11/19 07:46:37;;;;;;;4.10;3.50;;;;;;;8.67;82.78;99436.91;109715;1251;68058;-68
2023/11/19 07:49:04;;;;;;;3.00;2.70;;;;;;;8.68;79.21;99433.41;109499;1251;72488;-68
2023/11/19 07:51:30;;;;;;;3.00;2.80;;;;;;;8.67;78.53;99434.41;109613;1251;58924;-66
2023/11/19 07:53:57;;;;;;;2.90;2.60;;;;;;;8.77;76.91;99429.36;109591;1254;58923;-75
2023/11/19 07:56:23;;;;;;;3.50;3.20;;;;;;;8.79;74.03;99430.17;109530;1255;73152;-66
2023/11/19 07:58:51;;;;;;;2.90;2.70;;;;;;;8.81;73.24;99426.17;109642;1251;66983;-70
2023/11/19 08:01:17;;;;;;;2.90;2.70;;;;;;;8.85;72.87;99428.17;109510;1255;71632;-66
2023/11/19 08:03:44;;;;;;;3.00;2.80;;;;;;;8.90;70.97;99426.87;109667;1251;59238;-68
2023/11/19 08:06:25;;;;;;;3.80;3.20;;;;;;;8.91;70.15;99423.15;109596;1251;58932;-66
2023/11/19 08:08:52;;;;;;;3.00;2.80;;;;;;;8.92;70.22;99416.95;109469;1251;73302;-66
2023/11/19 08:11:19;;;;;;;2.80;2.60;;;;;;;8.97;69.09;99413.25;109722;1251;67676;-67
2023/11/19 08:13:46;;;;;;;2.50;2.30;;;;;;;9.10;68.08;99414.70;109600;1250;72558;-66
2023/11/19 08:16:12;;;;;;;2.50;2.30;;;;;;;9.24;66.41;99413.29;109657;1250;58961;-66
2023/11/19 08:18:41;;;;;;;2.50;2.30;;;;;;;9.35;65.30;99405.84;109653;1251;59223;-67
2023/11/19 08:21:08;;;;;;;2.40;2.20;;;;;;;9.44;64.44;99403.45;109649;1251;74482;-67
2023/11/19 08:23:36;;;;;;;2.60;2.40;;;;;;;9.54;63.22;99399.15;109721;1251;66448;-68
2023/11/19 08:26:02;;;;;;;2.40;2.20;;;;;;;9.75;62.11;99397.81;109679;1251;71923;-66
2023/11/19 08:28:31;;;;;;;1.80;1.70;;;;;;;9.96;60.16;99397.63;109458;1251;60656;-67
2023/11/19 08:30:58;;;;;;;1.80;1.70;;;;;;;10.03;58.58;99399.59;109479;1250;59592;-68
2023/11/19 08:33:27;;;;;;;2.20;2.00;;;;;;;10.07;57.92;99389.91;109787;1251;74634;-68
2023/11/19 08:35:53;;;;;;;2.10;2.00;;;;;;;10.18;56.64;99390.48;109681;1251;67683;-69
2023/11/19 08:38:20;;;;;;;1.90;1.70;;;;;;;10.31;55.69;99392.04;109614;1254;71250;-70
2023/11/19 08:40:49;;;;;;;2.20;2.00;;;;;;;10.36;52.95;99390.38;109579;1251;59518;-70
2023/11/19 08:43:16;;;;;;;1.70;1.60;;;;;;;10.50;51.78;99393.61;109705;1251;59109;-77
2023/11/19 08:45:42;;;;;;;2.20;2.00;;;;;;;10.68;51.32;99393.67;109650;1254;74518;-70
2023/11/19 08:48:09;;;;;;;2.30;2.10;;;;;;;10.50;51.03;99395.17;109666;1251;67816;-68
2023/11/19 08:50:35;;;;;;;2.50;2.20;;;;;;;10.09;51.01;99392.91;109563;1252;72473;-67
2023/11/19 08:53:02;;;;;;;2.00;1.90;;;;;;;10.09;51.40;99387.02;109610;1251;58996;-72
2023/11/19 08:55:28;;;;;;;3.10;2.00;;;;;;;10.37;50.67;99386.38;109658;1251;60390;-71
2023/11/19 08:57:55;;;;;;;2.70;2.40;;;;;;;10.62;50.97;99375.90;109656;1251;74452;-69
2023/11/19 09:00:21;;;;;;;2.40;2.30;;;;;;;10.98;50.08;99365.14;109603;1256;59096;-67
2023/11/19 09:02:48;;;;;;;4.80;2.50;;;;;;;11.17;49.32;99358.55;109646;1252;59098;-66
2023/11/19 09:05:15;;;;;;;2.70;2.50;;;;;;;11.12;49.03;99358.53;109626;1251;58995;-66
2023/11/19 09:07:42;;;;;;;3.20;2.90;;;;;;;10.94;49.07;99362.66;109606;1252;59105;-69
2023/11/19 09:10:09;;;;;;;3.40;3.10;;;;;;;10.92;49.09;99367.64;109597;1251;74331;-66
2023/11/19 09:12:35;;;;;;;3.40;3.10;;;;;;;10.51;48.37;99369.03;109702;1251;67745;-66
2023/11/19 09:15:02;;;;;;;3.20;3.00;;;;;;;9.45;49.07;99372.61;109607;1251;72622;-68
2023/11/19 09:17:29;;;;;;;3.20;3.00;;;;;;;8.22;50.80;99373.34;109663;1250;59306;-66
2023/11/19 09:19:56;;;;;;;3.10;2.80;;;;;;;7.04;53.34;99376.87;109748;1251;59231;-67
2023/11/19 09:22:22;;;;;;;2.90;2.70;;;;;;;6.10;56.42;99383.11;109685;1254;59595;-66
2023/11/19 09:24:49;;;;;;;3.00;2.80;;;;;;;5.36;60.39;99381.70;109691;1251;66397;-68
2023/11/19 09:27:15;;;;;;;3.00;2.80;;;;;;;5.22;65.75;99380.87;109714;1254;71934;-67
2023/11/19 09:29:43;;;;;;;3.60;2.60;;;;;;;5.82;68.43;99372.67;109729;1250;59857;-65
2023/11/19 09:32:09;;;;;;;3.50;2.60;;;;;;;6.36;67.44;99371.58;109545;1251;60153;-67
2023/11/19 09:34:36;;;;;;;3.10;2.90;;;;;;;6.21;66.05;99369.90;109652;1251;74690;-68
2023/11/19 09:37:02;;;;;;;3.70;3.30;;;;;;;5.52;66.84;99364.93;109654;1251;59563;-68
2023/11/19 09:39:29;;;;;;;3.20;2.90;;;;;;;4.77;70.43;99362.15;109659;1251;71460;-68
2023/11/19 09:41:55;;;;;;;3.60;3.30;;;;;;;4.13;75.89;99359.42;109561;1251;58890;-67
2023/11/19 09:44:22;;;;;;;4.00;2.80;;;;;;;3.60;82.61;99355.88;109628;1251;59033;-67
2023/11/19 09:46:48;;;;;;;3.40;3.10;;;;;;;3.23;89.80;99353.95;109578;1250;59547;-67
2023/11/19 09:49:15;;;;;;;3.70;3.40;;;;;;;2.94;96.20;99350.30;109685;1250;66748;-66
2023/11/19 09:51:41;;;;;;;3.50;3.20;;;;;;;2.72;100.00;99342.78;109591;1251;58953;-67
2023/11/19 09:54:09;;;;;;;3.70;3.40;;;;;;;2.57;100.00;99337.40;109389;1251;167390;-67
2023/11/19 09:56:36;;;;;;;3.10;2.90;;;;;;;2.42;100.00;99333.48;109664;1251;60136;-67
2023/11/19 09:59:03;;;;;;;3.30;3.00;;;;;;;2.27;100.00;99336.08;109565;1251;73250;-66
2023/11/19 10:01:31;;;;;;;3.30;3.00;;;;;;;2.26;100.00;99334.63;109523;1251;66526;-69
2023/11/19 10:03:58;;;;;;;3.30;3.00;;;;;;;2.31;100.00;99330.02;109586;1251;71655;-68
2023/11/19 10:06:26;;;;;;;2.70;2.50;;;;;;;2.38;100.00;99324.67;109498;1251;59417;-66
2023/11/19 10:08:53;;;;;;;3.60;2.40;;;;;;;2.47;100.00;99318.77;109615;1251;58890;-67
2023/11/19 10:11:19;;;;;;;2.70;2.40;;;;;;;2.54;100.00;99315.71;109380;1251;72879;-68
2023/11/19 10:13:48;;;;;;;4.40;2.30;;;;;;;2.57;100.00;99313.08;109669;1251;66728;-67
2023/11/19 10:16:14;;;;;;;3.20;2.90;;;;;;;2.66;100.00;99310.88;109670;1251;72470;-65
2023/11/19 10:18:50;;;;;;;3.10;2.90;;;;;;;2.76;100.00;99310.11;109646;1251;59684;-65
2023/11/19 10:21:19;;;;;;;2.90;2.60;;;;;;;2.90;100.00;99302.65;109678;1251;59228;-64
2023/11/19 10:23:51;;;;;;;2.70;2.50;;;;;;;3.12;100.00;99301.23;109633;1251;74568;-66
2023/11/19 10:26:18;;;;;;;3.30;3.00;;;;;;;3.38;100.00;99294.83;109685;1251;66920;-68
2023/11/19 10:28:48;;;;;;;2.40;2.20;;;;;;;3.62;100.00;99289.59;109617;1250;71464;-68
2023/11/19 10:31:15;;;;;;;3.40;2.30;;;;;;;3.85;100.00;99279.93;109567;1251;58944;-68
2023/11/19 10:33:44;;;;;;;3.00;2.80;;;;;;;4.08;100.00;99275.47;109646;1251;60567;-67
2023/11/19 10:36:14;;;;;;;2.80;2.60;;;;;;;4.30;100.00;99274.33;109586;1251;73251;-65
2023/11/19 10:38:41;;;;;;;3.70;2.80;;;;;;;4.55;100.00;99278.94;109707;1251;67707;-65
2023/11/19 10:41:08;;;;;;;3.30;3.00;;;;;;;4.71;100.00;99278.02;109352;1251;72454;-68
2023/11/19 10:43:46;;;;;;;3.00;2.70;;;;;;;4.83;100.00;99274.80;109642;1251;58893;-66
2023/11/19 10:46:20;;;;;;;3.60;3.30;;;;;;;4.90;99.58;99273.21;109527;1251;60009;-69
2023/11/19 10:48:47;;;;;;;2.90;2.60;;;;;;;4.99;98.80;99269.27;109595;1251;73225;-66
2023/11/19 10:51:16;;;;;;;2.70;2.50;;;;;;;5.08;97.90;99272.90;109670;1251;67954;-67
2023/11/19 10:53:42;;;;;;;2.70;2.40;;;;;;;5.09;95.89;99274.36;109461;1251;73204;-67
2023/11/19 10:56:12;;;;;;;2.50;2.30;;;;;;;5.07;93.39;99276.52;109349;1251;58958;-67
2023/11/19 10:58:41;;;;;;;2.80;2.60;;;;;;;4.94;92.84;99273.83;109423;1251;59344;-67
2023/11/19 11:01:12;;;;;;;2.50;2.30;;;;;;;4.81;93.30;99276.41;109431;1254;74517;-69
2023/11/19 11:03:42;;;;;;;2.10;2.00;;;;;;;4.71;94.28;99275.58;109588;1251;67765;-67
2023/11/19 11:06:09;;;;;;;2.60;2.40;;;;;;;4.53;93.93;99272.32;109656;1251;74041;-68
2023/11/19 11:08:36;;;;;;;3.50;2.50;;;;;;;4.33;94.24;99273.67;109472;1251;59009;-68
2023/11/19 11:11:04;;;;;;;2.10;2.00;;;;;;;4.16;95.38;99274.21;109655;1254;60136;-67
2023/11/19 11:13:31;;;;;;;2.60;2.40;;;;;;;3.94;96.03;99269.27;109606;1251;72782;-67
2023/11/19 11:15:58;;;;;;;2.70;2.50;;;;;;;3.78;98.28;99269.66;109661;1251;66831;-66
2023/11/19 11:18:25;;;;;;;2.50;2.30;;;;;;;3.68;99.95;99267.88;109648;1251;72391;-70
2023/11/19 11:20:52;;;;;;;3.60;2.80;;;;;;;3.59;100.00;99264.48;109571;1251;58948;-69
2023/11/19 11:23:43;;;;;;;3.00;2.70;;;;;;;3.47;100.00;99261.30;109434;1253;58943;-70
2023/11/19 11:26:28;;;;;;;2.70;2.50;;;;;;;3.33;100.00;99254.13;109617;1251;73983;-70